Baracaldo, Spain
Current Conditions -  °F | °C
As of 4:30 PM on Friday 19 Dec 2014 (Local Time) from LEBB Reporting Station
Broken Clouds Broken Clouds  
Wind Chill: 55°   Ceiling: 3300
Heat Index: 55°   Visibility: 6mi
Dew Point: 45°   Wind: 2mph
Humidity: 67%   Direction: NA
Pressure: 30.48"   Gusts: NA
Location:  43.3°N, 2.98°W
Report Text: LEBB 191530Z VRB02KT 9999 BKN033 13/07 Q1032 NOSIG
Loading
Personal Weather Stations






























Interactive Weather Map New forecast layout! Learn more

10-Day Weather Forecast

Advertisements
Track Severe Weather on mobile